createdAt,value
2018-04-07T00:00:00.471Z,99.99
2018-04-07T00:01:01.039Z,99.99
2018-04-07T00:02:01.607Z,99.99
2018-04-07T00:03:02.176Z,99.99
2018-04-07T00:04:02.747Z,99.99
2018-04-07T00:05:03.326Z,99.99
2018-04-07T00:06:03.894Z,99.99
2018-04-07T00:07:04.466Z,99.99
2018-04-07T00:08:05.038Z,99.99
2018-04-07T00:09:05.602Z,99.99
2018-04-07T00:10:06.173Z,99.99
2018-04-07T00:11:06.740Z,99.99
2018-04-07T00:12:07.322Z,99.99
2018-04-07T00:13:07.890Z,99.99
2018-04-07T00:14:08.463Z,99.99
2018-04-07T00:15:09.029Z,99.99
2018-04-07T00:16:09.600Z,99.99
2018-04-07T00:17:10.168Z,99.99
2018-04-07T00:18:10.739Z,99.99
2018-04-07T00:19:11.305Z,99.99
2018-04-07T00:20:11.879Z,99.99
2018-04-07T00:21:12.445Z,99.99
2018-04-07T00:22:13.012Z,99.69
2018-04-07T00:23:13.580Z,99.99
2018-04-07T00:24:14.147Z,99.99
2018-04-07T00:25:14.716Z,99.99
2018-04-07T00:26:15.283Z,99.99
2018-04-07T00:27:15.852Z,99.99
2018-04-07T00:28:16.420Z,99.99
2018-04-07T00:29:16.988Z,99.99
2018-04-07T00:30:17.556Z,99.99
2018-04-07T00:31:18.129Z,99.99
2018-04-07T00:32:18.693Z,99.99
2018-04-07T00:33:19.261Z,99.99
2018-04-07T00:34:19.829Z,99.50
2018-04-07T00:35:20.398Z,98.93
2018-04-07T00:36:20.964Z,98.26
2018-04-07T00:37:21.533Z,99.40
2018-04-07T00:38:22.100Z,99.99
2018-04-07T00:39:22.670Z,99.30
2018-04-07T00:40:23.251Z,99.88
2018-04-07T00:41:23.820Z,98.97
2018-04-07T00:42:24.388Z,99.02
2018-04-07T00:43:24.957Z,98.36
2018-04-07T00:44:25.525Z,98.50
2018-04-07T00:45:26.094Z,99.02
2018-04-07T00:46:26.662Z,99.99
2018-04-07T00:47:27.232Z,99.78
2018-04-07T00:48:27.802Z,99.99
2018-04-07T00:49:28.368Z,99.99
2018-04-07T00:50:28.935Z,99.99
2018-04-07T00:51:29.502Z,99.21
2018-04-07T00:52:30.071Z,99.21
2018-04-07T00:53:30.638Z,99.99
2018-04-07T00:54:31.207Z,99.07
2018-04-07T00:55:31.832Z,99.99
2018-04-07T00:56:32.366Z,99.99
2018-04-07T00:57:32.948Z,99.99
2018-04-07T00:58:33.527Z,99.11
2018-04-07T00:59:34.094Z,99.02
2018-04-07T01:00:34.662Z,99.02
2018-04-07T01:01:35.232Z,99.99
2018-04-07T01:02:35.820Z,99.99
2018-04-07T01:03:36.379Z,99.99
2018-04-07T01:04:36.961Z,99.99
2018-04-07T01:05:37.531Z,99.99
2018-04-07T01:06:38.100Z,99.99
2018-04-07T01:07:38.668Z,99.99
2018-04-07T01:08:39.247Z,99.99
2018-04-07T01:09:39.814Z,99.99
2018-04-07T01:10:40.385Z,99.99
2018-04-07T01:11:40.950Z,99.99
2018-04-07T01:12:41.519Z,99.99
2018-04-07T01:13:42.086Z,99.99
2018-04-07T01:14:42.654Z,99.99
2018-04-07T01:15:43.223Z,99.99
2018-04-07T01:16:43.794Z,99.99
2018-04-07T01:17:44.371Z,99.99
2018-04-07T01:18:44.938Z,99.99
2018-04-07T01:19:45.507Z,99.99
2018-04-07T01:20:46.079Z,99.99
2018-04-07T01:21:46.656Z,99.99
2018-04-07T01:22:47.225Z,99.99
2018-04-07T01:23:47.804Z,99.99
2018-04-07T01:24:48.385Z,99.99
2018-04-07T01:25:48.953Z,99.99
2018-04-07T01:26:49.522Z,99.99
2018-04-07T01:27:50.090Z,99.99
2018-04-07T01:28:50.659Z,99.99
2018-04-07T01:29:51.226Z,99.99
2018-04-07T01:30:51.798Z,99.99
2018-04-07T01:31:52.361Z,99.99
2018-04-07T01:32:52.930Z,99.99
2018-04-07T01:33:53.497Z,99.99
2018-04-07T01:34:54.066Z,99.99
2018-04-07T01:35:54.634Z,99.99
2018-04-07T01:36:55.207Z,99.99
2018-04-07T01:37:55.771Z,99.99
2018-04-07T01:38:56.339Z,99.99
2018-04-07T01:39:56.910Z,99.99
2018-04-07T01:40:57.475Z,99.99
2018-04-07T01:41:58.044Z,99.99
2018-04-07T01:42:58.611Z,99.99
2018-04-07T01:43:59.180Z,99.99
2018-04-07T01:44:59.748Z,99.99
2018-04-07T01:46:00.316Z,99.99
2018-04-07T01:47:00.882Z,99.99
2018-04-07T01:48:01.450Z,99.99
2018-04-07T01:49:02.018Z,99.99
2018-04-07T01:50:02.589Z,99.99
2018-04-07T01:51:03.152Z,99.99
2018-04-07T01:52:03.719Z,99.99
2018-04-07T01:53:04.286Z,99.99
2018-04-07T01:54:04.853Z,99.99
2018-04-07T01:55:05.423Z,99.99
2018-04-07T01:56:05.990Z,99.99
2018-04-07T01:57:06.557Z,99.99
2018-04-07T01:58:07.125Z,99.99
2018-04-07T01:59:07.692Z,99.99
2018-04-07T02:00:08.262Z,99.99
2018-04-07T02:01:08.830Z,99.99
2018-04-07T02:02:09.397Z,99.99
2018-04-07T02:03:09.964Z,99.99
2018-04-07T02:04:10.532Z,99.99
2018-04-07T02:05:11.100Z,99.99
2018-04-07T02:06:11.667Z,99.99
2018-04-07T02:07:12.235Z,99.99
2018-04-07T02:08:12.802Z,99.99
2018-04-07T02:09:13.372Z,99.99
2018-04-07T02:10:13.954Z,99.99
2018-04-07T02:11:14.526Z,99.99
2018-04-07T02:12:15.085Z,99.99
2018-04-07T02:13:15.653Z,99.99
2018-04-07T02:14:16.222Z,99.99
2018-04-07T02:15:16.789Z,99.99
2018-04-07T02:16:17.357Z,99.99
2018-04-07T02:17:17.923Z,99.99
2018-04-07T02:18:18.491Z,99.99
2018-04-07T02:19:19.059Z,99.99
2018-04-07T02:20:19.626Z,99.99
2018-04-07T02:21:20.194Z,99.99
2018-04-07T02:22:20.761Z,99.99
2018-04-07T02:23:21.329Z,99.99
2018-04-07T02:24:21.896Z,99.99
2018-04-07T02:25:22.462Z,99.99
2018-04-07T02:26:23.031Z,99.99
2018-04-07T02:27:23.598Z,99.99
2018-04-07T02:28:24.167Z,99.99
2018-04-07T02:29:24.748Z,99.99
2018-04-07T02:30:25.323Z,99.99
2018-04-07T02:31:25.902Z,99.99
2018-04-07T02:32:26.472Z,99.99
2018-04-07T02:33:27.039Z,99.99
2018-04-07T02:34:27.614Z,99.99
2018-04-07T02:35:28.178Z,99.99
2018-04-07T02:36:28.746Z,99.99
2018-04-07T02:37:29.312Z,99.99
2018-04-07T02:38:29.882Z,99.99
2018-04-07T02:39:30.461Z,99.99
2018-04-07T02:40:31.030Z,99.99
2018-04-07T02:41:31.600Z,99.99
2018-04-07T02:42:32.245Z,99.99
2018-04-07T02:43:32.748Z,99.99
2018-04-07T02:44:33.316Z,99.99
2018-04-07T02:45:33.886Z,99.99
2018-04-07T02:46:34.455Z,99.99
2018-04-07T02:47:35.040Z,99.99
2018-04-07T02:48:35.608Z,99.99
2018-04-07T02:49:36.179Z,99.99
2018-04-07T02:50:36.750Z,99.99
2018-04-07T02:51:37.326Z,99.99
2018-04-07T02:52:37.904Z,99.99
2018-04-07T02:53:38.473Z,99.99
2018-04-07T02:54:39.041Z,99.99
2018-04-07T02:55:39.607Z,99.99
2018-04-07T02:56:40.185Z,99.99
2018-04-07T02:57:40.756Z,99.99
2018-04-07T02:58:41.321Z,99.99
2018-04-07T02:59:41.891Z,99.99
2018-04-07T03:00:42.460Z,99.99
2018-04-07T03:01:43.037Z,99.99
2018-04-07T03:02:43.602Z,99.99
2018-04-07T03:03:44.224Z,99.99
2018-04-07T03:04:44.738Z,99.99
2018-04-07T03:05:45.303Z,99.99
2018-04-07T03:06:45.873Z,99.99
2018-04-07T03:07:46.439Z,99.99
2018-04-07T03:08:47.016Z,99.99
2018-04-07T03:09:47.584Z,99.99
2018-04-07T03:10:48.154Z,99.99
2018-04-07T03:11:48.721Z,99.99
2018-04-07T03:12:49.291Z,99.99
2018-04-07T03:13:49.857Z,99.99
2018-04-07T03:14:50.426Z,99.99
2018-04-07T03:15:50.993Z,99.99
2018-04-07T03:16:51.562Z,99.99
2018-04-07T03:17:52.129Z,99.99
2018-04-07T03:18:52.696Z,99.99
2018-04-07T03:19:53.263Z,99.99
2018-04-07T03:20:53.834Z,99.99
2018-04-07T03:21:54.397Z,99.99
2018-04-07T03:22:54.968Z,99.99
2018-04-07T03:23:55.532Z,99.99
2018-04-07T03:24:56.098Z,99.99
2018-04-07T03:25:56.665Z,99.99
2018-04-07T03:26:57.233Z,99.99
2018-04-07T03:27:57.802Z,99.99
2018-04-07T03:28:58.367Z,99.99
2018-04-07T03:29:58.934Z,99.99
2018-04-07T03:30:59.503Z,99.99
2018-04-07T03:32:00.069Z,99.99
2018-04-07T03:33:00.648Z,99.99
2018-04-07T03:34:01.227Z,99.99
2018-04-07T03:35:01.794Z,99.99
2018-04-07T03:36:02.360Z,99.99
2018-04-07T03:37:02.927Z,99.99
2018-04-07T03:38:03.493Z,99.99
2018-04-07T03:39:04.060Z,99.99
2018-04-07T03:40:04.628Z,99.99
2018-04-07T03:41:05.195Z,99.99
2018-04-07T03:42:05.763Z,99.99
2018-04-07T03:43:06.331Z,99.99
2018-04-07T03:44:06.899Z,99.99
2018-04-07T03:45:07.467Z,99.99
2018-04-07T03:46:08.033Z,99.99
2018-04-07T03:47:08.600Z,99.99
2018-04-07T03:48:09.168Z,99.99
2018-04-07T03:49:09.738Z,99.99
2018-04-07T03:50:10.307Z,99.99
2018-04-07T03:51:10.874Z,99.99
2018-04-07T03:52:11.443Z,99.99
2018-04-07T03:53:12.015Z,99.99
2018-04-07T03:54:12.591Z,99.99
2018-04-07T03:55:13.174Z,99.99
2018-04-07T03:56:13.740Z,99.99
2018-04-07T03:57:14.319Z,99.99
2018-04-07T03:58:14.886Z,99.99
2018-04-07T03:59:15.463Z,99.99
2018-04-07T04:00:16.029Z,99.99
2018-04-07T04:01:16.596Z,99.99
2018-04-07T04:02:17.164Z,99.99
2018-04-07T04:03:17.731Z,99.99
2018-04-07T04:04:18.298Z,99.99
2018-04-07T04:05:18.863Z,99.99
2018-04-07T04:06:19.433Z,99.99
2018-04-07T04:07:20.009Z,99.99
2018-04-07T04:08:20.578Z,99.99
2018-04-07T04:09:21.156Z,99.99
2018-04-07T04:10:21.734Z,99.99
2018-04-07T04:11:22.303Z,99.99
2018-04-07T04:12:22.872Z,99.99
2018-04-07T04:13:23.440Z,99.99
2018-04-07T04:14:24.009Z,99.99
2018-04-07T04:15:24.576Z,99.99
2018-04-07T04:16:25.156Z,99.99
2018-04-07T04:17:25.723Z,99.99
2018-04-07T04:18:26.293Z,99.99
2018-04-07T04:19:26.860Z,99.99
2018-04-07T04:20:27.429Z,99.99
2018-04-07T04:21:28.001Z,99.99
2018-04-07T04:22:28.568Z,99.99
2018-04-07T04:23:29.144Z,99.99
2018-04-07T04:24:29.723Z,99.99
2018-04-07T04:25:30.290Z,99.99
2018-04-07T04:26:30.869Z,99.99
2018-04-07T04:27:31.436Z,99.99
2018-04-07T04:28:32.005Z,99.99
2018-04-07T04:29:32.572Z,99.99
2018-04-07T04:30:33.141Z,99.99
2018-04-07T04:31:33.708Z,99.99
2018-04-07T04:32:34.277Z,99.99
2018-04-07T04:33:34.843Z,99.99
2018-04-07T04:34:35.410Z,99.99
2018-04-07T04:35:35.977Z,99.99
2018-04-07T04:36:36.544Z,99.99
2018-04-07T04:37:37.111Z,99.99
2018-04-07T04:38:37.679Z,99.99
2018-04-07T04:39:38.246Z,99.99
2018-04-07T04:40:38.827Z,99.99
2018-04-07T04:41:39.402Z,99.99
2018-04-07T04:42:39.969Z,99.99
2018-04-07T04:43:40.536Z,99.99
2018-04-07T04:44:41.104Z,99.99
2018-04-07T04:45:41.684Z,99.99
2018-04-07T04:46:42.254Z,99.99
2018-04-07T04:47:42.833Z,99.99
2018-04-07T04:48:43.412Z,99.99
2018-04-07T04:49:43.979Z,99.99
2018-04-07T04:50:44.558Z,99.99
2018-04-07T04:51:45.127Z,99.99
2018-04-07T04:52:45.705Z,99.99
2018-04-07T04:53:46.272Z,99.99
2018-04-07T04:54:46.839Z,99.99
2018-04-07T04:55:47.407Z,99.99
2018-04-07T04:56:47.979Z,99.99
2018-04-07T04:57:48.557Z,99.99
2018-04-07T04:58:49.126Z,99.99
2018-04-07T04:59:49.695Z,99.99
2018-04-07T05:00:50.263Z,99.99
2018-04-07T05:01:50.842Z,99.99
2018-04-07T05:02:51.412Z,99.99
2018-04-07T05:03:51.981Z,99.99
2018-04-07T05:04:52.561Z,99.99
2018-04-07T05:05:53.130Z,99.99
2018-04-07T05:06:53.700Z,99.99
2018-04-07T05:07:54.308Z,99.99
2018-04-07T05:08:54.837Z,99.99
2018-04-07T05:09:55.405Z,99.99
2018-04-07T05:10:55.972Z,99.99
2018-04-07T05:11:56.540Z,99.99
2018-04-07T05:12:57.108Z,99.99
2018-04-07T05:13:57.679Z,99.99
2018-04-07T05:14:58.247Z,99.99
2018-04-07T05:15:58.814Z,99.99
2018-04-07T05:16:59.385Z,99.99
2018-04-07T05:17:59.954Z,99.99
2018-04-07T05:19:00.523Z,99.99
2018-04-07T05:20:01.091Z,99.99
2018-04-07T05:21:01.661Z,99.99
2018-04-07T05:22:02.229Z,99.99
2018-04-07T05:23:02.809Z,99.99
2018-04-07T05:24:03.379Z,99.99
2018-04-07T05:25:03.948Z,99.99
2018-04-07T05:26:04.517Z,99.99
2018-04-07T05:27:05.086Z,99.99
2018-04-07T05:28:05.657Z,99.99
2018-04-07T05:29:06.229Z,99.99
2018-04-07T05:30:06.798Z,99.99
2018-04-07T05:31:07.370Z,99.99
2018-04-07T05:32:07.938Z,99.99
2018-04-07T05:33:08.507Z,99.99
2018-04-07T05:34:09.079Z,99.99
2018-04-07T05:35:09.650Z,99.99
2018-04-07T05:36:10.222Z,99.99
2018-04-07T05:37:10.794Z,99.99
2018-04-07T05:38:11.373Z,99.99
2018-04-07T05:39:11.943Z,99.99
2018-04-07T05:40:12.513Z,99.99
2018-04-07T05:41:13.084Z,99.99
2018-04-07T05:42:13.649Z,99.99
2018-04-07T05:43:14.218Z,90.57
2018-04-07T05:44:14.790Z,84.82
2018-04-07T05:45:15.360Z,87.01
2018-04-07T05:46:15.936Z,71.14
2018-04-07T05:47:16.502Z,99.99
2018-04-07T05:48:17.074Z,82.92
2018-04-07T05:49:17.643Z,99.99
2018-04-07T05:50:18.213Z,99.99
2018-04-07T05:51:18.786Z,83.62
2018-04-07T05:52:19.357Z,99.99
2018-04-07T05:53:19.929Z,84.20
2018-04-07T05:54:20.498Z,99.99
2018-04-07T05:55:21.070Z,99.99
2018-04-07T05:56:21.643Z,99.99
2018-04-07T05:57:22.213Z,99.99
2018-04-07T05:58:22.783Z,99.99
2018-04-07T05:59:23.354Z,99.99
2018-04-07T06:00:23.925Z,99.99
2018-04-07T06:01:24.497Z,99.99
2018-04-07T06:02:25.068Z,99.99
2018-04-07T06:03:25.646Z,99.99
2018-04-07T06:04:26.209Z,99.99
2018-04-07T06:05:26.780Z,99.99
2018-04-07T06:06:27.352Z,99.99
2018-04-07T06:07:27.924Z,99.99
2018-04-07T06:08:28.499Z,99.99
2018-04-07T06:09:29.074Z,99.99
2018-04-07T06:10:29.650Z,99.99
2018-04-07T06:11:30.220Z,99.99
2018-04-07T06:12:30.789Z,99.99
2018-04-07T06:13:31.362Z,99.99
2018-04-07T06:14:31.933Z,99.99
2018-04-07T06:15:32.506Z,99.99
2018-04-07T06:16:33.077Z,99.99
2018-04-07T06:17:33.647Z,99.99
2018-04-07T06:18:34.217Z,99.99
2018-04-07T06:19:34.791Z,99.99
2018-04-07T06:20:35.362Z,99.99
2018-04-07T06:21:35.933Z,99.99
2018-04-07T06:22:36.515Z,99.99
2018-04-07T06:23:37.090Z,99.99
2018-04-07T06:24:37.668Z,99.99
2018-04-07T06:25:38.248Z,99.99
2018-04-07T06:26:38.818Z,99.99
2018-04-07T06:27:39.392Z,99.99
2018-04-07T06:28:39.966Z,99.99
2018-04-07T06:29:40.549Z,99.99
2018-04-07T06:30:41.121Z,99.99
2018-04-07T06:31:41.694Z,99.99
2018-04-07T06:32:42.275Z,99.99
2018-04-07T06:33:42.847Z,99.99
2018-04-07T06:34:43.429Z,99.99
2018-04-07T06:35:44.003Z,99.99
2018-04-07T06:36:44.573Z,99.99
2018-04-07T06:37:45.146Z,99.99
2018-04-07T06:38:45.717Z,99.99
2018-04-07T06:39:46.288Z,99.99
2018-04-07T06:40:46.861Z,99.99
2018-04-07T06:41:47.433Z,99.99
2018-04-07T06:42:48.004Z,99.99
2018-04-07T06:43:48.576Z,99.98
2018-04-07T06:44:49.149Z,99.99
2018-04-07T06:45:49.726Z,99.99
2018-04-07T06:46:50.294Z,99.99
2018-04-07T06:47:50.866Z,99.99
2018-04-07T06:48:51.436Z,99.99
2018-04-07T06:49:52.007Z,99.99
2018-04-07T06:50:52.584Z,99.99
2018-04-07T06:51:53.162Z,99.99
2018-04-07T06:52:53.735Z,99.99
2018-04-07T06:53:54.307Z,99.99
2018-04-07T06:54:54.879Z,99.99
2018-04-07T06:55:55.451Z,99.99
2018-04-07T06:56:56.022Z,99.99
2018-04-07T06:57:56.593Z,99.99
2018-04-07T06:58:57.177Z,99.99
2018-04-07T06:59:57.749Z,99.99
2018-04-07T07:00:58.324Z,99.99
2018-04-07T07:01:58.900Z,99.99
2018-04-07T07:02:59.481Z,99.99
2018-04-07T07:04:00.060Z,99.99
2018-04-07T07:05:00.633Z,99.99
2018-04-07T07:06:01.204Z,99.99
2018-04-07T07:07:01.778Z,99.99
2018-04-07T07:08:02.358Z,99.99
2018-04-07T07:09:02.928Z,99.99
2018-04-07T07:10:03.511Z,99.99
2018-04-07T07:11:04.086Z,99.99
2018-04-07T07:12:04.658Z,99.99
2018-04-07T07:13:05.232Z,99.99
2018-04-07T07:14:05.807Z,99.99
2018-04-07T07:15:06.381Z,99.99
2018-04-07T07:16:06.965Z,99.99
2018-04-07T07:17:07.540Z,99.99
2018-04-07T07:18:08.115Z,99.99
2018-04-07T07:19:08.703Z,99.99
2018-04-07T07:20:09.272Z,99.99
2018-04-07T07:21:09.847Z,99.99
2018-04-07T07:22:10.426Z,99.08
2018-04-07T07:23:11.006Z,99.46
2018-04-07T07:24:11.584Z,97.94
2018-04-07T07:25:12.157Z,97.65
2018-04-07T07:26:12.733Z,96.03
2018-04-07T07:27:13.305Z,97.36
2018-04-07T07:28:13.878Z,97.51
2018-04-07T07:29:14.454Z,95.03
2018-04-07T07:30:15.032Z,93.12
2018-04-07T07:31:15.601Z,93.41
2018-04-07T07:32:16.227Z,93.60
2018-04-07T07:33:16.799Z,94.65
2018-04-07T07:34:17.374Z,92.93
2018-04-07T07:35:17.961Z,92.27
2018-04-07T07:36:18.544Z,94.08
2018-04-07T07:37:19.118Z,97.89
2018-04-07T07:38:19.697Z,94.56
2018-04-07T07:39:20.268Z,92.65
2018-04-07T07:40:20.841Z,92.93
2018-04-07T07:41:21.415Z,92.74
2018-04-07T07:42:21.989Z,90.74
2018-04-07T07:43:22.564Z,93.08
2018-04-07T07:44:23.140Z,93.36
2018-04-07T07:45:23.713Z,91.07
2018-04-07T07:46:24.288Z,90.69
2018-04-07T07:47:24.905Z,90.98
2018-04-07T07:48:25.440Z,86.88
2018-04-07T07:49:26.033Z,87.07
2018-04-07T07:50:26.622Z,87.35
2018-04-07T07:51:27.194Z,85.35
2018-04-07T07:52:27.769Z,85.25
2018-04-07T07:53:28.344Z,86.49
2018-04-07T07:54:28.921Z,85.21
2018-04-07T07:55:29.505Z,84.82
2018-04-07T07:56:30.080Z,85.68
2018-04-07T07:57:30.656Z,83.58
2018-04-07T07:58:31.232Z,83.87
2018-04-07T07:59:31.805Z,84.06
2018-04-07T08:00:32.380Z,83.20
2018-04-07T08:01:32.967Z,80.62
2018-04-07T08:02:33.541Z,79.96
2018-04-07T08:03:34.117Z,80.15
2018-04-07T08:04:34.691Z,79.00
2018-04-07T08:05:35.266Z,78.62
2018-04-07T08:06:35.842Z,80.66
2018-04-07T08:07:36.419Z,78.37
2018-04-07T08:08:36.996Z,77.13
2018-04-07T08:09:37.579Z,78.47
2018-04-07T08:10:38.155Z,80.66
2018-04-07T08:11:38.730Z,78.47
2018-04-07T08:12:39.308Z,76.27
2018-04-07T08:13:39.885Z,77.89
2018-04-07T08:14:40.485Z,76.08
2018-04-07T08:15:41.048Z,76.08
2018-04-07T08:16:41.623Z,78.51
2018-04-07T08:17:42.198Z,75.45
2018-04-07T08:18:42.778Z,74.11
2018-04-07T08:19:43.361Z,75.54
2018-04-07T08:20:44.038Z,74.30
2018-04-07T08:21:44.518Z,74.02
2018-04-07T08:22:45.094Z,72.97
2018-04-07T08:23:45.670Z,73.44
2018-04-07T08:24:46.247Z,76.12
2018-04-07T08:25:46.823Z,73.54
2018-04-07T08:26:47.398Z,73.73
2018-04-07T08:27:47.980Z,73.77
2018-04-07T08:28:48.563Z,73.44
2018-04-07T08:29:49.138Z,73.54
2018-04-07T08:30:49.714Z,76.25
2018-04-07T08:31:50.288Z,73.10
2018-04-07T08:32:50.864Z,73.86
2018-04-07T08:33:51.442Z,73.00
2018-04-07T08:34:52.017Z,72.33
2018-04-07T08:35:52.592Z,73.67
2018-04-07T08:36:53.166Z,72.33
2018-04-07T08:37:53.744Z,72.14
2018-04-07T08:38:54.323Z,71.42
2018-04-07T08:39:54.898Z,71.99
2018-04-07T08:40:55.476Z,71.42
2018-04-07T08:41:56.054Z,70.75
2018-04-07T08:42:56.630Z,70.84
2018-04-07T08:43:57.206Z,69.41
2018-04-07T08:44:57.783Z,69.50
2018-04-07T08:45:58.361Z,69.21
2018-04-07T08:46:58.936Z,69.60
2018-04-07T08:47:59.512Z,69.79
2018-04-07T08:49:00.089Z,69.89
2018-04-07T08:50:00.666Z,68.84
2018-04-07T08:51:01.258Z,68.29
2018-04-07T08:52:01.820Z,67.82
2018-04-07T08:53:02.395Z,67.72
2018-04-07T08:54:02.972Z,68.20
2018-04-07T08:55:03.552Z,66.47
2018-04-07T08:56:04.137Z,68.77
2018-04-07T08:57:04.715Z,68.58
2018-04-07T08:58:05.291Z,67.82
2018-04-07T08:59:05.866Z,67.72
2018-04-07T09:00:06.444Z,68.58
2018-04-07T09:01:07.022Z,67.76
2018-04-07T09:02:07.598Z,68.04
2018-04-07T09:03:08.174Z,66.89
2018-04-07T09:04:08.751Z,66.61
2018-04-07T09:05:09.359Z,66.32
2018-04-07T09:06:09.906Z,66.80
2018-04-07T09:07:10.483Z,67.18
2018-04-07T09:08:11.061Z,68.13
2018-04-07T09:09:11.639Z,66.51
2018-04-07T09:10:12.220Z,65.88
2018-04-07T09:11:12.792Z,66.06
2018-04-07T09:12:13.370Z,66.45
2018-04-07T09:13:13.958Z,67.31
2018-04-07T09:14:14.536Z,66.25
2018-04-07T09:15:15.116Z,65.88
2018-04-07T09:16:15.694Z,67.11
2018-04-07T09:17:16.269Z,67.02
2018-04-07T09:18:16.849Z,66.16
2018-04-07T09:19:17.429Z,66.35
2018-04-07T09:20:18.013Z,65.49
2018-04-07T09:21:18.592Z,66.25
2018-04-07T09:22:19.180Z,66.00
2018-04-07T09:23:19.758Z,66.58
2018-04-07T09:24:20.335Z,67.72
2018-04-07T09:25:20.911Z,67.15
2018-04-07T09:26:21.489Z,66.29
2018-04-07T09:27:22.068Z,65.52
2018-04-07T09:28:22.645Z,66.09
2018-04-07T09:29:23.225Z,65.52
2018-04-07T09:30:23.804Z,64.95
2018-04-07T09:31:24.379Z,64.40
2018-04-07T09:32:24.959Z,65.84
2018-04-07T09:33:25.536Z,64.50
2018-04-07T09:34:26.114Z,63.35
2018-04-07T09:35:26.692Z,62.77
2018-04-07T09:36:27.269Z,61.53
2018-04-07T09:37:27.847Z,14.60
2018-04-07T09:38:28.424Z,14.60
2018-04-07T09:39:29.000Z,14.60
2018-04-07T09:40:29.580Z,14.60
2018-04-07T09:41:30.159Z,14.60
2018-04-07T09:42:30.737Z,14.60
2018-04-07T09:43:31.318Z,14.60
2018-04-07T09:44:31.907Z,14.60
2018-04-07T09:45:32.485Z,14.60
2018-04-07T09:46:33.067Z,14.60
2018-04-07T09:47:33.645Z,14.60
2018-04-07T09:48:34.234Z,14.60
2018-04-07T09:49:34.818Z,14.60
2018-04-07T09:50:35.389Z,14.60
2018-04-07T09:51:35.969Z,14.60
2018-04-07T09:52:36.550Z,14.60
2018-04-07T09:53:37.131Z,14.60
2018-04-07T09:54:37.718Z,14.60
2018-04-07T09:55:38.297Z,14.60
2018-04-07T09:56:38.874Z,14.60
2018-04-07T09:57:39.453Z,14.60
2018-04-07T09:58:40.034Z,14.60
2018-04-07T09:59:40.611Z,14.60
2018-04-07T10:00:41.191Z,14.60
2018-04-07T10:01:41.770Z,14.60
2018-04-07T10:02:42.349Z,14.60
2018-04-07T10:03:42.927Z,14.60
2018-04-07T10:04:43.503Z,14.60
2018-04-07T10:05:44.083Z,14.60
2018-04-07T10:06:44.663Z,14.60
2018-04-07T10:07:45.242Z,14.60
2018-04-07T10:08:45.821Z,14.60
2018-04-07T10:09:46.400Z,14.60
2018-04-07T10:10:46.996Z,14.60
2018-04-07T10:11:47.572Z,14.60
2018-04-07T10:12:48.160Z,14.60
2018-04-07T10:13:48.741Z,14.60
2018-04-07T10:14:49.320Z,14.60
2018-04-07T10:15:49.899Z,14.60
2018-04-07T10:16:50.482Z,14.60
2018-04-07T10:17:51.071Z,14.60
2018-04-07T10:18:51.662Z,14.60
2018-04-07T10:19:52.242Z,14.60
2018-04-07T10:20:52.819Z,14.60
2018-04-07T10:21:53.409Z,14.60
2018-04-07T10:22:53.990Z,14.60
2018-04-07T10:23:54.583Z,14.60
2018-04-07T10:24:55.163Z,14.60
2018-04-07T10:25:55.750Z,14.60
2018-04-07T10:26:56.340Z,14.60
2018-04-07T10:27:56.920Z,14.60
2018-04-07T10:28:57.499Z,14.60
2018-04-07T10:29:58.078Z,14.60
2018-04-07T10:30:58.659Z,14.60
2018-04-07T10:31:59.244Z,14.60
2018-04-07T10:32:59.830Z,14.60
2018-04-07T10:34:00.410Z,14.60
2018-04-07T10:35:01.001Z,14.60
2018-04-07T10:36:01.582Z,14.60
2018-04-07T10:37:02.173Z,14.60
2018-04-07T10:38:02.751Z,14.60
2018-04-07T10:39:03.331Z,14.60
2018-04-07T10:40:03.910Z,14.60
2018-04-07T10:41:04.493Z,14.60
2018-04-07T10:42:05.075Z,14.60
2018-04-07T10:43:05.651Z,14.60
2018-04-07T10:44:06.233Z,14.60
2018-04-07T10:45:06.811Z,14.60
2018-04-07T10:46:07.403Z,14.60
2018-04-07T10:47:07.985Z,14.60
2018-04-07T10:48:08.565Z,14.60
2018-04-07T10:49:09.147Z,14.60
2018-04-07T10:50:09.728Z,14.60
2018-04-07T10:51:10.307Z,14.60
2018-04-07T10:52:10.888Z,14.60
2018-04-07T10:53:11.467Z,14.60
2018-04-07T10:54:12.047Z,14.60
2018-04-07T10:55:12.629Z,14.60
2018-04-07T10:56:13.208Z,14.60
2018-04-07T10:57:13.788Z,14.60
2018-04-07T10:58:14.368Z,14.60
2018-04-07T10:59:14.950Z,14.60
2018-04-07T11:00:15.531Z,14.60
2018-04-07T11:01:16.111Z,14.60
2018-04-07T11:02:16.693Z,14.60
2018-04-07T11:03:17.284Z,14.60
2018-04-07T11:04:17.866Z,14.60
2018-04-07T11:05:18.448Z,14.60
2018-04-07T11:06:19.028Z,14.60
2018-04-07T11:07:19.608Z,14.60
2018-04-07T11:08:20.199Z,14.60
2018-04-07T11:09:20.777Z,14.60
2018-04-07T11:10:21.355Z,14.60
2018-04-07T11:11:21.954Z,14.60
2018-04-07T11:12:22.529Z,14.60
2018-04-07T11:13:23.112Z,14.60
2018-04-07T11:14:23.703Z,14.60
2018-04-07T11:15:24.287Z,14.60
2018-04-07T11:16:24.866Z,14.60
2018-04-07T11:17:25.446Z,14.60
2018-04-07T11:18:26.038Z,14.60
2018-04-07T11:19:26.622Z,14.60
2018-04-07T11:20:27.199Z,14.60
2018-04-07T11:21:27.792Z,14.60
2018-04-07T11:22:28.370Z,14.60
2018-04-07T11:23:28.952Z,14.60
2018-04-07T11:24:29.533Z,14.60
2018-04-07T11:25:30.113Z,14.60
2018-04-07T11:26:30.695Z,14.60
2018-04-07T11:27:31.277Z,14.60
2018-04-07T11:28:31.858Z,14.60
2018-04-07T11:29:32.453Z,14.60
2018-04-07T11:30:33.030Z,14.60
2018-04-07T11:31:33.612Z,14.60
2018-04-07T11:32:34.192Z,14.60
2018-04-07T11:33:34.773Z,14.60
2018-04-07T11:34:35.375Z,14.60
2018-04-07T11:35:35.956Z,14.60
2018-04-07T11:36:36.536Z,14.60
2018-04-07T11:37:37.123Z,14.60
2018-04-07T11:38:37.714Z,14.60
2018-04-07T11:39:38.297Z,14.60
2018-04-07T11:40:38.880Z,14.60
2018-04-07T11:41:39.459Z,14.60
2018-04-07T11:42:40.046Z,14.60
2018-04-07T11:43:40.645Z,14.60
2018-04-07T11:44:41.227Z,14.60
2018-04-07T11:45:41.807Z,14.60
2018-04-07T11:46:42.388Z,14.60
2018-04-07T11:47:42.971Z,14.60
2018-04-07T11:48:43.552Z,14.60
2018-04-07T11:49:44.132Z,14.60
2018-04-07T11:50:44.716Z,14.60
2018-04-07T11:51:45.300Z,14.60
2018-04-07T11:52:45.881Z,14.60
2018-04-07T11:53:46.463Z,14.60
2018-04-07T11:54:47.046Z,14.60
2018-04-07T11:55:47.628Z,14.60
2018-04-07T11:56:48.209Z,14.60
2018-04-07T11:57:48.790Z,14.60
2018-04-07T11:58:49.378Z,14.60
2018-04-07T11:59:49.955Z,14.60
2018-04-07T12:00:50.538Z,14.60
2018-04-07T12:01:51.117Z,14.60
2018-04-07T12:02:51.699Z,14.60
2018-04-07T12:03:52.282Z,14.60
2018-04-07T12:04:52.863Z,14.60
2018-04-07T12:05:53.445Z,14.60
2018-04-07T12:06:54.027Z,14.60
2018-04-07T12:07:54.610Z,14.60
2018-04-07T12:08:55.191Z,14.60
2018-04-07T12:09:55.772Z,14.60
2018-04-07T12:10:56.356Z,14.60
2018-04-07T12:11:56.937Z,14.60
2018-04-07T12:12:57.520Z,14.60
2018-04-07T12:13:58.102Z,14.60
2018-04-07T12:14:58.680Z,14.60
2018-04-07T12:15:59.264Z,14.60
2018-04-07T12:16:59.847Z,14.60
2018-04-07T12:18:00.433Z,14.60
2018-04-07T12:19:01.010Z,14.60
2018-04-07T12:20:01.593Z,14.60
2018-04-07T12:21:02.178Z,14.60
2018-04-07T12:22:02.759Z,14.60
2018-04-07T12:23:03.341Z,14.60
2018-04-07T12:24:03.923Z,14.60
2018-04-07T12:25:04.505Z,14.60
2018-04-07T12:26:05.087Z,14.60
2018-04-07T12:27:05.670Z,14.60
2018-04-07T12:28:06.251Z,14.60
2018-04-07T12:29:06.835Z,14.60
2018-04-07T12:30:07.419Z,14.60
2018-04-07T12:31:08.000Z,14.60
2018-04-07T12:32:08.586Z,14.60
2018-04-07T12:33:09.166Z,14.60
2018-04-07T12:34:09.749Z,14.60
2018-04-07T12:35:10.341Z,14.60
2018-04-07T12:36:10.923Z,14.60
2018-04-07T12:37:11.511Z,14.60
2018-04-07T12:38:12.089Z,14.60
2018-04-07T12:39:12.668Z,14.60
2018-04-07T12:40:13.252Z,14.60
2018-04-07T12:41:13.833Z,14.60
2018-04-07T12:42:14.418Z,14.60
2018-04-07T12:43:14.997Z,14.60
2018-04-07T12:44:15.590Z,14.60
2018-04-07T12:45:16.171Z,14.60
2018-04-07T12:46:16.755Z,14.60
2018-04-07T12:47:17.340Z,14.60
2018-04-07T12:48:17.921Z,14.60
2018-04-07T12:49:18.502Z,14.60
2018-04-07T12:50:19.084Z,14.60
2018-04-07T12:51:19.669Z,14.60
2018-04-07T12:52:20.262Z,14.60
2018-04-07T12:53:20.843Z,14.60
2018-04-07T12:54:21.425Z,14.60
2018-04-07T12:55:22.010Z,14.60
2018-04-07T12:56:22.594Z,14.60
2018-04-07T12:57:23.193Z,14.60
2018-04-07T12:58:23.772Z,14.60
2018-04-07T12:59:24.357Z,14.60